Time;durP1;ratioP1;P1;durP2;ratioP2;P2;SDS_P1;SDS_P2;PMS_P1;PMS_P2;Temp;Humidity;BMP_temperature;BMP_pressure;BME280_temperature;BME280_humidity;BME280_pressure;Samples;Min_cycle;Max_cycle;Signal;HPM_P1;HPM_P2
2021/11/19 00:01:50;;;;;;;7.25;3.65;;;;;;;;;;5028405;28;20208;-48
2021/11/19 00:04:16;;;;;;;7.40;3.53;;;;;;;;;;5031765;28;20447;-48
2021/11/19 00:06:42;;;;;;;5.57;3.33;;;;;;;;;;5026577;28;20199;-49
2021/11/19 00:09:09;;;;;;;5.30;3.55;;;;;;;;;;5028853;28;20207;-50
2021/11/19 00:11:38;;;;;;;6.97;3.17;;;;;;;;;;5031611;28;20184;-48
2021/11/19 00:14:04;;;;;;;7.03;3.63;;;;;;;;;;5031724;28;20790;-48
2021/11/19 00:16:31;;;;;;;5.47;3.60;;;;;;;;;;5031456;28;20450;-49
2021/11/19 00:18:57;;;;;;;5.05;3.28;;;;;;;;;;5031906;28;20190;-49
2021/11/19 00:21:25;;;;;;;6.85;3.63;;;;;;;;;;5029944;28;20204;-48
2021/11/19 00:23:51;;;;;;;7.22;3.40;;;;;;;;;;5026632;28;20206;-47
2021/11/19 00:26:18;;;;;;;7.00;3.25;;;;;;;;;;5029088;28;20272;-48
2021/11/19 00:28:45;;;;;;;7.30;3.15;;;;;;;;;;5030427;28;20606;-49
2021/11/19 00:31:12;;;;;;;6.63;3.60;;;;;;;;;;5040673;28;20187;-48
2021/11/19 00:33:39;;;;;;;6.45;3.45;;;;;;;;;;5030966;28;20226;-49
2021/11/19 00:36:07;;;;;;;5.20;3.08;;;;;;;;;;5037976;28;20266;-49
2021/11/19 00:38:34;;;;;;;5.57;3.08;;;;;;;;;;5035839;28;20179;-48
2021/11/19 00:41:03;;;;;;;5.07;3.20;;;;;;;;;;5039210;28;20192;-47
2021/11/19 00:43:29;;;;;;;4.68;2.80;;;;;;;;;;5038380;28;20183;-48
2021/11/19 00:45:56;;;;;;;7.30;3.40;;;;;;;;;;5036267;28;20194;-48
2021/11/19 00:48:23;;;;;;;5.30;3.35;;;;;;;;;;5037032;28;20333;-48
2021/11/19 00:50:52;;;;;;;4.75;3.00;;;;;;;;;;5037863;28;20226;-49
2021/11/19 00:53:18;;;;;;;5.80;3.30;;;;;;;;;;5038041;28;20184;-48
2021/11/19 00:55:44;;;;;;;4.15;2.83;;;;;;;;;;5037682;28;21130;-48
2021/11/19 00:58:11;;;;;;;7.15;3.60;;;;;;;;;;5037118;28;20230;-49
2021/11/19 01:00:40;;;;;;;4.38;3.00;;;;;;;;;;5037165;28;20649;-49
2021/11/19 01:03:06;;;;;;;4.40;2.88;;;;;;;;;;5036167;28;20237;-49
2021/11/19 01:05:33;;;;;;;4.20;2.63;;;;;;;;;;5035651;28;20245;-48
2021/11/19 01:07:59;;;;;;;3.65;2.63;;;;;;;;;;5034673;28;20203;-49
2021/11/19 01:10:27;;;;;;;4.80;2.80;;;;;;;;;;5037458;28;20279;-49
2021/11/19 01:12:54;;;;;;;3.85;2.80;;;;;;;;;;5038828;28;20176;-49
2021/11/19 01:15:24;;;;;;;3.38;2.30;;;;;;;;;;5036110;28;20757;-48
2021/11/19 01:17:55;;;;;;;4.10;2.63;;;;;;;;;;5036024;28;20195;-49
2021/11/19 01:20:30;;;;;;;5.55;2.75;;;;;;;;;;5038603;28;20191;-48
2021/11/19 01:22:57;;;;;;;4.75;2.90;;;;;;;;;;5039938;28;20194;-49
2021/11/19 01:25:24;;;;;;;4.47;2.30;;;;;;;;;;5037523;28;20613;-49
2021/11/19 01:27:50;;;;;;;4.30;2.58;;;;;;;;;;5035826;28;20218;-49
2021/11/19 01:30:19;;;;;;;5.13;2.60;;;;;;;;;;5036195;28;20586;-49
2021/11/19 01:32:45;;;;;;;3.33;2.45;;;;;;;;;;5036982;28;20227;-48
2021/11/19 01:35:11;;;;;;;4.70;2.50;;;;;;;;;;5037524;28;20188;-49
2021/11/19 01:37:38;;;;;;;4.70;2.50;;;;;;;;;;5038602;28;20511;-49
2021/11/19 01:40:06;;;;;;;5.07;2.90;;;;;;;;;;5036476;28;20211;-50
2021/11/19 01:42:34;;;;;;;4.68;2.42;;;;;;;;;;5038726;28;20222;-48
2021/11/19 01:45:05;;;;;;;4.13;2.40;;;;;;;;;;5036500;28;20229;-48
2021/11/19 01:47:32;;;;;;;5.50;2.90;;;;;;;;;;5033620;28;20204;-48
2021/11/19 01:49:58;;;;;;;3.75;2.60;;;;;;;;;;5030412;28;20533;-48
2021/11/19 01:52:29;;;;;;;3.65;2.22;;;;;;;;;;5035718;28;20183;-48
2021/11/19 01:54:59;;;;;;;4.57;2.67;;;;;;;;;;5030588;28;20176;-48
2021/11/19 01:57:25;;;;;;;3.30;2.50;;;;;;;;;;5033776;28;20243;-49
2021/11/19 01:59:59;;;;;;;2.65;2.13;;;;;;;;;;5034399;28;20278;-49
2021/11/19 02:02:31;;;;;;;3.60;2.65;;;;;;;;;;5033242;28;20211;-48
2021/11/19 02:05:02;;;;;;;3.20;2.47;;;;;;;;;;5030064;28;20184;-48
2021/11/19 02:07:31;;;;;;;3.75;2.55;;;;;;;;;;5030800;28;20244;-49
2021/11/19 02:10:06;;;;;;;2.90;2.42;;;;;;;;;;5033359;28;20180;-50
2021/11/19 02:12:39;;;;;;;2.90;2.30;;;;;;;;;;5033801;28;20547;-48
2021/11/19 02:15:16;;;;;;;3.05;2.10;;;;;;;;;;5031372;28;20195;-48
2021/11/19 02:17:43;;;;;;;2.67;2.13;;;;;;;;;;5033811;28;20197;-49
2021/11/19 02:20:12;;;;;;;3.53;2.20;;;;;;;;;;5033283;28;20270;-49
2021/11/19 02:22:47;;;;;;;2.97;2.13;;;;;;;;;;5033343;28;20188;-48
2021/11/19 02:25:15;;;;;;;2.80;2.17;;;;;;;;;;5034123;28;20620;-49
2021/11/19 02:27:41;;;;;;;3.60;2.45;;;;;;;;;;5033877;28;20219;-48
2021/11/19 02:30:10;;;;;;;3.10;2.13;;;;;;;;;;5032362;28;20187;-48
2021/11/19 02:32:42;;;;;;;2.67;2.05;;;;;;;;;;5033748;28;20184;-49
2021/11/19 02:35:11;;;;;;;3.42;2.55;;;;;;;;;;5028567;28;20172;-49
2021/11/19 02:37:40;;;;;;;2.20;1.98;;;;;;;;;;5034387;28;20282;-48
2021/11/19 02:40:12;;;;;;;2.95;2.13;;;;;;;;;;5033435;28;20192;-48
2021/11/19 02:42:58;;;;;;;2.58;1.80;;;;;;;;;;5027652;28;20191;-48
2021/11/19 02:45:27;;;;;;;3.53;2.17;;;;;;;;;;5032106;28;20192;-48
2021/11/19 02:47:53;;;;;;;4.53;2.00;;;;;;;;;;5034287;28;20211;-48
2021/11/19 02:50:20;;;;;;;3.20;2.10;;;;;;;;;;5033447;28;20206;-48
2021/11/19 02:52:47;;;;;;;2.38;2.10;;;;;;;;;;5030481;28;20188;-49
2021/11/19 02:55:20;;;;;;;3.33;1.73;;;;;;;;;;5033263;28;20540;-50
2021/11/19 02:57:46;;;;;;;3.92;2.33;;;;;;;;;;5032859;28;20198;-50
2021/11/19 03:00:14;;;;;;;2.35;1.92;;;;;;;;;;5031942;28;20187;-49
2021/11/19 03:02:41;;;;;;;3.03;1.95;;;;;;;;;;5031261;28;20317;-48
2021/11/19 03:05:09;;;;;;;2.20;1.90;;;;;;;;;;5033352;28;20188;-48
2021/11/19 03:07:35;;;;;;;3.72;1.90;;;;;;;;;;5033174;28;20276;-50
2021/11/19 03:10:03;;;;;;;2.47;2.00;;;;;;;;;;5031464;28;20289;-48
2021/11/19 03:12:31;;;;;;;3.15;2.00;;;;;;;;;;5029361;28;20184;-49
2021/11/19 03:14:58;;;;;;;2.92;1.90;;;;;;;;;;5032200;28;20290;-48
2021/11/19 03:17:25;;;;;;;2.35;1.90;;;;;;;;;;5033720;28;20274;-49
2021/11/19 03:19:51;;;;;;;3.63;1.75;;;;;;;;;;5032428;28;20180;-48
2021/11/19 03:22:18;;;;;;;2.05;1.77;;;;;;;;;;5033783;28;20192;-49
2021/11/19 03:24:45;;;;;;;2.65;1.80;;;;;;;;;;5031005;28;20188;-49
2021/11/19 03:27:12;;;;;;;2.33;1.75;;;;;;;;;;5032448;28;20467;-49
2021/11/19 03:29:42;;;;;;;3.08;1.75;;;;;;;;;;5031912;28;20191;-49
2021/11/19 03:32:09;;;;;;;1.88;1.70;;;;;;;;;;5032022;28;20569;-49
2021/11/19 03:34:36;;;;;;;2.28;1.98;;;;;;;;;;5029317;28;20203;-49
2021/11/19 03:37:02;;;;;;;2.55;1.70;;;;;;;;;;5032488;28;20187;-48
2021/11/19 03:39:29;;;;;;;2.55;1.80;;;;;;;;;;5031223;28;20602;-49
2021/11/19 03:41:56;;;;;;;2.92;1.75;;;;;;;;;;5028850;28;20696;-49
2021/11/19 03:44:45;;;;;;;1.98;1.73;;;;;;;;;;5031775;28;20183;-48
2021/11/19 03:47:14;;;;;;;2.50;1.92;;;;;;;;;;5031489;28;20590;-49
2021/11/19 03:49:41;;;;;;;2.20;1.60;;;;;;;;;;5031649;28;20211;-49
2021/11/19 03:52:07;;;;;;;2.25;1.88;;;;;;;;;;5032977;28;20176;-49
2021/11/19 03:54:34;;;;;;;2.65;1.65;;;;;;;;;;5028675;28;20346;-48
2021/11/19 03:57:01;;;;;;;2.38;1.60;;;;;;;;;;5030911;28;20194;-48
2021/11/19 03:59:27;;;;;;;2.45;1.67;;;;;;;;;;5030826;28;20191;-48
2021/11/19 04:01:54;;;;;;;2.75;1.90;;;;;;;;;;5031139;28;20283;-49
2021/11/19 04:04:23;;;;;;;2.47;1.92;;;;;;;;;;5029473;28;20282;-49
2021/11/19 04:06:49;;;;;;;2.28;1.90;;;;;;;;;;5032443;28;20195;-48
2021/11/19 04:09:15;;;;;;;2.35;1.70;;;;;;;;;;5026100;28;20188;-48
2021/11/19 04:11:41;;;;;;;2.92;1.73;;;;;;;;;;5033179;28;20184;-48
2021/11/19 04:14:07;;;;;;;2.95;1.73;;;;;;;;;;5028279;28;20559;-48
2021/11/19 04:16:36;;;;;;;2.50;1.80;;;;;;;;;;5032033;28;20195;-48
2021/11/19 04:19:02;;;;;;;2.67;1.67;;;;;;;;;;5031455;28;20186;-50
2021/11/19 04:21:29;;;;;;;1.73;1.60;;;;;;;;;;5031024;28;20274;-49
2021/11/19 04:23:57;;;;;;;1.98;1.63;;;;;;;;;;5031960;28;20184;-48
2021/11/19 04:26:25;;;;;;;1.92;1.50;;;;;;;;;;5031258;28;20269;-49
2021/11/19 04:28:51;;;;;;;2.13;1.50;;;;;;;;;;5031384;28;20211;-49
2021/11/19 04:31:20;;;;;;;2.00;1.67;;;;;;;;;;5029532;28;20544;-48
2021/11/19 04:33:47;;;;;;;1.45;1.30;;;;;;;;;;5030993;28;20229;-48
2021/11/19 04:36:13;;;;;;;1.85;1.52;;;;;;;;;;5029954;28;20599;-49
2021/11/19 04:38:39;;;;;;;2.22;1.48;;;;;;;;;;5032008;28;20200;-48
2021/11/19 04:41:06;;;;;;;2.65;1.60;;;;;;;;;;5030200;28;20188;-48
2021/11/19 04:43:33;;;;;;;2.03;1.60;;;;;;;;;;5032069;28;20183;-49
2021/11/19 04:46:00;;;;;;;1.83;1.60;;;;;;;;;;5029091;28;20207;-48
2021/11/19 04:48:28;;;;;;;2.50;1.83;;;;;;;;;;5032327;28;20199;-49
2021/11/19 04:50:54;;;;;;;3.40;1.52;;;;;;;;;;5030789;28;20193;-49
2021/11/19 04:53:22;;;;;;;1.60;1.50;;;;;;;;;;5031927;28;20226;-47
2021/11/19 04:55:48;;;;;;;1.60;1.50;;;;;;;;;;5029077;28;20187;-49
2021/11/19 04:58:14;;;;;;;3.03;1.85;;;;;;;;;;5031704;28;20187;-49
2021/11/19 05:00:42;;;;;;;1.63;1.48;;;;;;;;;;5030478;28;20214;-49
2021/11/19 05:03:09;;;;;;;1.95;1.65;;;;;;;;;;5031683;28;20269;-49
2021/11/19 05:05:36;;;;;;;2.42;1.67;;;;;;;;;;5027806;28;20183;-48
2021/11/19 05:08:03;;;;;;;2.95;1.67;;;;;;;;;;5030431;28;20567;-49
2021/11/19 05:10:29;;;;;;;2.65;1.60;;;;;;;;;;5029702;28;20197;-49
2021/11/19 05:12:56;;;;;;;3.05;1.52;;;;;;;;;;5031803;28;20230;-49
2021/11/19 05:15:23;;;;;;;2.25;1.70;;;;;;;;;;5030664;28;20190;-48
2021/11/19 05:17:49;;;;;;;4.57;1.70;;;;;;;;;;5027284;28;20500;-47
2021/11/19 05:20:17;;;;;;;15.05;5.18;;;;;;;;;;5028826;28;20180;-50
2021/11/19 05:22:43;;;;;;;26.63;7.25;;;;;;;;;;5031069;28;20246;-48
2021/11/19 05:25:10;;;;;;;38.13;8.77;;;;;;;;;;5033881;28;20192;-49
2021/11/19 05:27:36;;;;;;;37.00;9.80;;;;;;;;;;5035392;28;20199;-50
2021/11/19 05:30:04;;;;;;;47.92;12.68;;;;;;;;;;5032347;28;20175;-50
2021/11/19 05:32:29;;;;;;;48.67;14.85;;;;;;;;;;5033181;28;20612;-48
2021/11/19 05:34:55;;;;;;;52.13;14.65;;;;;;;;;;5035229;28;20188;-49
2021/11/19 05:37:21;;;;;;;59.85;16.23;;;;;;;;;;5035194;28;20559;-48
2021/11/19 05:39:47;;;;;;;60.83;16.70;;;;;;;;;;5033908;28;20226;-49
2021/11/19 05:42:13;;;;;;;71.80;17.45;;;;;;;;;;5034439;28;20180;-49
2021/11/19 05:44:40;;;;;;;60.35;17.55;;;;;;;;;;5034338;28;20523;-49
2021/11/19 05:47:07;;;;;;;63.45;16.70;;;;;;;;;;5035197;28;20203;-49
2021/11/19 05:49:34;;;;;;;57.25;17.63;;;;;;;;;;5026541;28;20207;-50
2021/11/19 05:52:01;;;;;;;58.53;17.05;;;;;;;;;;5035394;28;20179;-48
2021/11/19 05:54:31;;;;;;;69.05;17.38;;;;;;;;;;5028977;28;20188;-49
2021/11/19 05:56:58;;;;;;;65.85;16.40;;;;;;;;;;5031647;28;20188;-49
2021/11/19 05:59:24;;;;;;;57.30;16.90;;;;;;;;;;5034037;28;20246;-50
2021/11/19 06:01:50;;;;;;;59.17;16.65;;;;;;;;;;5031142;28;20258;-50
2021/11/19 06:04:16;;;;;;;62.60;16.13;;;;;;;;;;5033452;28;20188;-49
2021/11/19 06:06:43;;;;;;;63.97;16.98;;;;;;;;;;5034032;28;20199;-48
2021/11/19 06:09:15;;;;;;;51.85;14.63;;;;;;;;;;5033850;28;20187;-48
2021/11/19 06:11:43;;;;;;;59.92;14.65;;;;;;;;;;5033173;28;20498;-49
2021/11/19 06:14:10;;;;;;;41.17;13.60;;;;;;;;;;5026868;28;20180;-48
2021/11/19 06:16:44;;;;;;;49.72;15.35;;;;;;;;;;5033754;28;20179;-49
2021/11/19 06:19:12;;;;;;;47.05;14.68;;;;;;;;;;5031103;28;20191;-49
2021/11/19 06:21:43;;;;;;;46.08;13.40;;;;;;;;;;5032340;28;20626;-49
2021/11/19 06:24:11;;;;;;;44.50;14.05;;;;;;;;;;5031495;28;20168;-48
2021/11/19 06:26:39;;;;;;;42.75;14.35;;;;;;;;;;5033804;28;20192;-47
2021/11/19 06:29:05;;;;;;;44.70;13.38;;;;;;;;;;5028439;28;20199;-48
2021/11/19 06:31:32;;;;;;;43.95;12.75;;;;;;;;;;5034435;28;20536;-49
2021/11/19 06:33:58;;;;;;;44.30;13.15;;;;;;;;;;5030609;28;20462;-49
2021/11/19 06:36:24;;;;;;;38.80;12.35;;;;;;;;;;5032950;28;20179;-49
2021/11/19 06:38:50;;;;;;;36.50;12.15;;;;;;;;;;5032037;28;20204;-50
2021/11/19 06:41:17;;;;;;;31.30;11.32;;;;;;;;;;5033252;28;20201;-49
2021/11/19 06:43:43;;;;;;;37.78;11.77;;;;;;;;;;5031347;28;20196;-50
2021/11/19 06:46:10;;;;;;;35.95;11.90;;;;;;;;;;5032035;28;20245;-48
2021/11/19 06:48:36;;;;;;;32.88;10.90;;;;;;;;;;5033474;28;20212;-48
2021/11/19 06:51:03;;;;;;;32.55;10.95;;;;;;;;;;5032310;28;20204;-49
2021/11/19 06:53:30;;;;;;;34.75;12.02;;;;;;;;;;5030571;28;20291;-49
2021/11/19 06:55:56;;;;;;;33.60;10.85;;;;;;;;;;5033109;28;20287;-49
2021/11/19 06:58:23;;;;;;;34.63;11.82;;;;;;;;;;5032997;28;20548;-48
2021/11/19 07:00:49;;;;;;;29.10;9.65;;;;;;;;;;5032933;28;20187;-48
2021/11/19 07:03:16;;;;;;;33.83;11.30;;;;;;;;;;5032917;28;20211;-48
2021/11/19 07:05:42;;;;;;;29.85;10.90;;;;;;;;;;5028934;28;20176;-49
2021/11/19 07:08:09;;;;;;;31.65;10.07;;;;;;;;;;5028778;28;20563;-48
2021/11/19 07:10:36;;;;;;;26.13;9.77;;;;;;;;;;5033903;28;20194;-48
2021/11/19 07:13:02;;;;;;;28.13;9.95;;;;;;;;;;5034014;28;20180;-48
2021/11/19 07:15:28;;;;;;;24.35;9.35;;;;;;;;;;5032281;28;20184;-48
2021/11/19 07:17:54;;;;;;;24.45;9.02;;;;;;;;;;5033558;28;20771;-48
2021/11/19 07:20:22;;;;;;;25.20;8.82;;;;;;;;;;5033651;28;20184;-49
2021/11/19 07:22:48;;;;;;;24.02;9.23;;;;;;;;;;5033656;28;20253;-48
2021/11/19 07:25:16;;;;;;;24.52;8.23;;;;;;;;;;5032738;28;20184;-49
2021/11/19 07:27:42;;;;;;;26.38;9.35;;;;;;;;;;5034030;28;20199;-49
2021/11/19 07:30:10;;;;;;;25.83;9.43;;;;;;;;;;5032621;28;20255;-49
2021/11/19 07:32:36;;;;;;;21.40;8.55;;;;;;;;;;5033565;28;20193;-48
2021/11/19 07:35:03;;;;;;;18.75;7.85;;;;;;;;;;5033483;28;20168;-49
2021/11/19 07:37:29;;;;;;;25.05;8.48;;;;;;;;;;5032997;28;20198;-49
2021/11/19 07:39:55;;;;;;;22.70;8.27;;;;;;;;;;5034525;28;20460;-48
2021/11/19 07:42:21;;;;;;;23.75;8.68;;;;;;;;;;5033146;28;20184;-48
2021/11/19 07:44:48;;;;;;;22.95;7.95;;;;;;;;;;5033757;28;20175;-48
2021/11/19 07:47:14;;;;;;;20.10;7.68;;;;;;;;;;5033081;28;20789;-48
2021/11/19 07:49:40;;;;;;;17.48;7.28;;;;;;;;;;5033207;28;20246;-50
2021/11/19 07:52:06;;;;;;;24.65;8.20;;;;;;;;;;5031997;28;20188;-50
2021/11/19 07:54:32;;;;;;;18.58;7.40;;;;;;;;;;5033669;28;20175;-48
2021/11/19 07:56:58;;;;;;;15.02;6.50;;;;;;;;;;5032958;28;20180;-48
2021/11/19 07:59:26;;;;;;;18.30;7.03;;;;;;;;;;5033995;28;20871;-49
2021/11/19 08:01:53;;;;;;;18.13;7.25;;;;;;;;;;5033389;28;20470;-49
2021/11/19 08:04:20;;;;;;;18.85;6.72;;;;;;;;;;5031158;28;20219;-48
2021/11/19 08:06:46;;;;;;;17.20;6.82;;;;;;;;;;5032475;28;20180;-48
2021/11/19 08:09:12;;;;;;;14.90;6.35;;;;;;;;;;5032544;28;20191;-49
2021/11/19 08:11:39;;;;;;;14.73;6.50;;;;;;;;;;5032404;28;20180;-50
2021/11/19 08:14:05;;;;;;;15.95;6.32;;;;;;;;;;5032960;28;20258;-48
2021/11/19 08:16:35;;;;;;;15.20;5.97;;;;;;;;;;5031493;28;20175;-48
2021/11/19 08:19:02;;;;;;;16.58;6.07;;;;;;;;;;5032306;28;20180;-48
2021/11/19 08:21:28;;;;;;;13.95;5.32;;;;;;;;;;5032162;28;20246;-50
2021/11/19 08:23:57;;;;;;;15.52;6.18;;;;;;;;;;5032645;28;20180;-48
2021/11/19 08:26:26;;;;;;;15.40;6.75;;;;;;;;;;5032696;28;20666;-49
2021/11/19 08:28:52;;;;;;;15.30;5.45;;;;;;;;;;5029421;28;20207;-48
2021/11/19 08:31:20;;;;;;;12.75;6.00;;;;;;;;;;5032308;28;20258;-49
2021/11/19 08:33:48;;;;;;;12.25;5.50;;;;;;;;;;5031369;28;20198;-49
2021/11/19 08:36:15;;;;;;;14.07;5.57;;;;;;;;;;5025744;28;20259;-48
2021/11/19 08:38:42;;;;;;;13.73;5.60;;;;;;;;;;5032335;28;20231;-48
2021/11/19 08:41:08;;;;;;;14.65;5.85;;;;;;;;;;5030606;28;20266;-47
2021/11/19 08:43:36;;;;;;;11.68;5.63;;;;;;;;;;5031621;28;20219;-50
2021/11/19 08:46:05;;;;;;;9.82;5.30;;;;;;;;;;5031947;28;20219;-49
2021/11/19 08:48:33;;;;;;;11.85;5.03;;;;;;;;;;5030780;28;20207;-48
2021/11/19 08:51:00;;;;;;;10.32;5.00;;;;;;;;;;5029052;28;20171;-48
2021/11/19 08:53:27;;;;;;;11.88;5.28;;;;;;;;;;5030775;28;20206;-48
2021/11/19 08:55:54;;;;;;;13.00;4.50;;;;;;;;;;5032862;28;20187;-49
2021/11/19 08:58:22;;;;;;;11.13;4.90;;;;;;;;;;5035613;28;20615;-48
2021/11/19 09:00:50;;;;;;;8.93;4.50;;;;;;;;;;5034518;28;20470;-49
2021/11/19 09:03:16;;;;;;;10.95;5.10;;;;;;;;;;5035704;28;20187;-50
2021/11/19 09:05:43;;;;;;;9.30;4.38;;;;;;;;;;5034398;28;20196;-48
2021/11/19 09:08:11;;;;;;;9.63;4.10;;;;;;;;;;5034549;28;20195;-48
2021/11/19 09:10:38;;;;;;;11.52;4.47;;;;;;;;;;5032312;28;20208;-49
2021/11/19 09:13:04;;;;;;;12.68;5.00;;;;;;;;;;5034251;28;20168;-48
2021/11/19 09:15:30;;;;;;;9.63;4.32;;;;;;;;;;5035826;28;20334;-49
2021/11/19 09:18:09;;;;;;;8.38;4.05;;;;;;;;;;5033542;28;20200;-47
2021/11/19 09:20:38;;;;;;;8.80;3.80;;;;;;;;;;5033325;28;20203;-48
2021/11/19 09:23:12;;;;;;;10.48;4.63;;;;;;;;;;5035476;28;20188;-49
2021/11/19 09:25:39;;;;;;;9.10;4.18;;;;;;;;;;5032496;28;20564;-48
2021/11/19 09:28:05;;;;;;;9.68;3.90;;;;;;;;;;5029820;28;20219;-48
2021/11/19 09:30:37;;;;;;;11.23;4.20;;;;;;;;;;5034182;28;20184;-49
2021/11/19 09:33:04;;;;;;;9.93;4.00;;;;;;;;;;5031271;28;20180;-50
2021/11/19 09:35:31;;;;;;;6.88;3.33;;;;;;;;;;5034601;28;20246;-49
2021/11/19 09:37:57;;;;;;;8.90;4.00;;;;;;;;;;5034579;28;20211;-48
2021/11/19 09:40:31;;;;;;;8.20;4.03;;;;;;;;;;5034085;28;20200;-50
2021/11/19 09:43:02;;;;;;;8.45;3.50;;;;;;;;;;5029494;28;20211;-50
2021/11/19 09:46:00;;;;;;;5.90;3.08;;;;;;;;;;5034875;28;20262;-49
2021/11/19 09:48:45;;;;;;;7.18;3.50;;;;;;;;;;5011047;28;20227;-49
2021/11/19 09:51:17;;;;;;;7.15;3.70;;;;;;;;;;5034170;28;20218;-48
2021/11/19 09:53:46;;;;;;;6.15;3.40;;;;;;;;;;5035046;28;20187;-50
2021/11/19 09:56:18;;;;;;;7.10;3.42;;;;;;;;;;5031941;28;20200;-49
2021/11/19 09:59:03;;;;;;;7.05;3.33;;;;;;;;;;5032443;28;20177;-49
2021/11/19 10:01:48;;;;;;;8.18;3.35;;;;;;;;;;5033743;28;20183;-48
2021/11/19 10:04:28;;;;;;;9.30;3.75;;;;;;;;;;5030402;28;20204;-49
2021/11/19 10:07:07;;;;;;;6.13;3.30;;;;;;;;;;5033503;28;20191;-49
2021/11/19 10:09:41;;;;;;;6.05;3.10;;;;;;;;;;5029759;28;20191;-49
2021/11/19 10:12:14;;;;;;;5.35;2.95;;;;;;;;;;5034326;28;20180;-48
2021/11/19 10:14:42;;;;;;;6.03;3.10;;;;;;;;;;5029654;28;20195;-48
2021/11/19 10:17:26;;;;;;;6.90;3.22;;;;;;;;;;5025181;28;20204;-48
2021/11/19 10:19:56;;;;;;;5.00;2.83;;;;;;;;;;5033363;28;20171;-49
2021/11/19 10:22:35;;;;;;;5.25;3.13;;;;;;;;;;5032730;28;20842;-49
2021/11/19 10:25:04;;;;;;;6.28;3.20;;;;;;;;;;5029808;28;20175;-48
2021/11/19 10:27:32;;;;;;;5.80;3.15;;;;;;;;;;5033293;28;20278;-48
2021/11/19 10:30:01;;;;;;;5.75;3.00;;;;;;;;;;5031826;28;20299;-48
2021/11/19 10:32:29;;;;;;;4.32;2.58;;;;;;;;;;5029016;28;20177;-49
2021/11/19 10:35:14;;;;;;;5.20;2.80;;;;;;;;;;5033438;28;20246;-49
2021/11/19 10:37:58;;;;;;;5.43;2.50;;;;;;;;;;5034861;28;20222;-48
2021/11/19 10:40:39;;;;;;;4.43;2.80;;;;;;;;;;5032687;28;21295;-49
2021/11/19 10:43:17;;;;;;;5.18;2.75;;;;;;;;;;5033729;28;20921;-49
2021/11/19 10:45:52;;;;;;;3.55;2.53;;;;;;;;;;5033841;28;20241;-48
2021/11/19 10:48:36;;;;;;;6.20;2.60;;;;;;;;;;5031151;28;20195;-48
2021/11/19 10:51:05;;;;;;;6.18;2.83;;;;;;;;;;5031792;28;20230;-48
2021/11/19 10:53:43;;;;;;;5.30;2.47;;;;;;;;;;5030800;28;20551;-48
2021/11/19 10:56:14;;;;;;;4.47;2.63;;;;;;;;;;5026393;28;20505;-49
2021/11/19 10:58:40;;;;;;;5.07;2.42;;;;;;;;;;5032844;28;20198;-48
2021/11/19 11:01:09;;;;;;;5.70;2.15;;;;;;;;;;5031292;28;20187;-50
2021/11/19 11:04:03;;;;;;;6.18;2.80;;;;;;;;;;5022849;28;20416;-48
2021/11/19 11:06:35;;;;;;;4.60;2.50;;;;;;;;;;5030456;28;20203;-48
2021/11/19 11:09:16;;;;;;;4.85;2.40;;;;;;;;;;5032292;28;20601;-48
2021/11/19 11:11:43;;;;;;;6.20;2.40;;;;;;;;;;5031951;28;20183;-50
2021/11/19 11:14:09;;;;;;;4.70;2.63;;;;;;;;;;5033414;28;20191;-49
2021/11/19 11:16:41;;;;;;;2.97;2.10;;;;;;;;;;5033101;28;20504;-48
2021/11/19 11:19:13;;;;;;;4.35;2.13;;;;;;;;;;5033320;28;20183;-48
2021/11/19 11:21:54;;;;;;;4.68;2.50;;;;;;;;;;5030843;28;20578;-48
2021/11/19 11:24:24;;;;;;;3.58;2.10;;;;;;;;;;5032855;28;20285;-48
2021/11/19 11:26:50;;;;;;;3.03;2.00;;;;;;;;;;5028680;28;20187;-49
2021/11/19 11:29:18;;;;;;;2.42;1.70;;;;;;;;;;5033475;28;20215;-48
2021/11/19 11:31:57;;;;;;;3.63;2.28;;;;;;;;;;5029622;28;20179;-48
2021/11/19 11:34:26;;;;;;;3.42;2.13;;;;;;;;;;5033068;28;20265;-48
2021/11/19 11:37:11;;;;;;;4.95;2.10;;;;;;;;;;5025397;28;20211;-49
2021/11/19 11:39:40;;;;;;;4.32;2.05;;;;;;;;;;5030497;28;20207;-48
2021/11/19 11:42:13;;;;;;;3.40;2.17;;;;;;;;;;5032024;28;20183;-48
2021/11/19 11:44:40;;;;;;;2.13;1.50;;;;;;;;;;5025197;28;20217;-50
2021/11/19 11:47:12;;;;;;;4.30;1.70;;;;;;;;;;5030315;28;20245;-49
2021/11/19 11:49:45;;;;;;;3.10;1.70;;;;;;;;;;5032355;28;20547;-48
2021/11/19 11:52:26;;;;;;;3.05;1.98;;;;;;;;;;5030169;28;20187;-50
2021/11/19 11:54:52;;;;;;;2.38;1.63;;;;;;;;;;5035416;28;20172;-50
2021/11/19 11:57:22;;;;;;;3.00;2.03;;;;;;;;;;5030403;28;21823;-48
2021/11/19 11:59:57;;;;;;;2.90;1.52;;;;;;;;;;5029300;28;20494;-49
2021/11/19 12:02:42;;;;;;;2.92;1.67;;;;;;;;;;5031328;28;20175;-49
2021/11/19 12:05:16;;;;;;;2.25;1.70;;;;;;;;;;5032067;28;20559;-48
2021/11/19 12:07:45;;;;;;;2.58;1.52;;;;;;;;;;5030092;28;20203;-48
2021/11/19 12:10:15;;;;;;;3.55;1.92;;;;;;;;;;5027205;28;20219;-49
2021/11/19 12:12:44;;;;;;;3.63;2.03;;;;;;;;;;5032481;28;20190;-48
2021/11/19 12:15:19;;;;;;;2.63;1.50;;;;;;;;;;5031057;28;20180;-48
2021/11/19 12:17:52;;;;;;;1.75;1.42;;;;;;;;;;5025238;28;20619;-49
2021/11/19 12:20:31;;;;;;;2.33;1.60;;;;;;;;;;5030751;28;20496;-48
2021/11/19 12:23:03;;;;;;;2.00;1.45;;;;;;;;;;5031213;28;20451;-48
2021/11/19 12:25:34;;;;;;;2.53;1.70;;;;;;;;;;5023172;28;20273;-50
2021/11/19 12:28:02;;;;;;;1.65;1.45;;;;;;;;;;5030546;28;20495;-47
2021/11/19 12:30:31;;;;;;;3.38;2.08;;;;;;;;;;5023445;28;20549;-49
2021/11/19 12:33:10;;;;;;;3.55;1.90;;;;;;;;;;5026226;28;20175;-48
2021/11/19 12:35:36;;;;;;;2.72;1.50;;;;;;;;;;5034895;28;20294;-49
2021/11/19 12:38:02;;;;;;;3.00;1.38;;;;;;;;;;5030344;28;20241;-48
2021/11/19 12:40:34;;;;;;;2.20;1.42;;;;;;;;;;5029356;28;20191;-50
2021/11/19 12:43:12;;;;;;;2.45;1.60;;;;;;;;;;5028942;28;20195;-49
2021/11/19 12:45:40;;;;;;;1.40;1.30;;;;;;;;;;5021414;28;20183;-50
2021/11/19 12:48:28;;;;;;;2.58;1.50;;;;;;;;;;5029576;28;20221;-50
2021/11/19 12:50:54;;;;;;;2.78;1.33;;;;;;;;;;5025978;28;20352;-49
2021/11/19 12:53:23;;;;;;;1.85;1.50;;;;;;;;;;5030887;28;20595;-49
2021/11/19 12:56:04;;;;;;;1.70;1.50;;;;;;;;;;5031315;28;20215;-49
2021/11/19 12:58:32;;;;;;;1.95;1.23;;;;;;;;;;5025748;28;20202;-49
2021/11/19 13:01:23;;;;;;;1.65;1.30;;;;;;;;;;5030616;28;20300;-49
2021/11/19 13:03:52;;;;;;;1.65;1.40;;;;;;;;;;5025603;28;20192;-48
2021/11/19 13:06:26;;;;;;;2.63;1.40;;;;;;;;;;5029307;28;20176;-49
2021/11/19 13:08:54;;;;;;;1.90;1.40;;;;;;;;;;5030216;28;20203;-49
2021/11/19 13:11:29;;;;;;;1.50;1.15;;;;;;;;;;5032119;28;20267;-48
2021/11/19 13:14:23;;;;;;;1.67;1.20;;;;;;;;;;5030525;28;20553;-49
2021/11/19 13:16:54;;;;;;;2.53;1.40;;;;;;;;;;5031572;28;20180;-48
2021/11/19 13:19:29;;;;;;;3.30;1.50;;;;;;;;;;5031863;28;20188;-48
2021/11/19 13:22:06;;;;;;;3.95;1.30;;;;;;;;;;5030876;28;20237;-49
2021/11/19 13:24:32;;;;;;;6.05;1.52;;;;;;;;;;5029631;28;20219;-49
2021/11/19 13:27:13;;;;;;;2.50;1.00;;;;;;;;;;5030966;28;20634;-49
2021/11/19 13:29:56;;;;;;;3.70;1.20;;;;;;;;;;5031474;28;20219;-48
2021/11/19 13:32:24;;;;;;;2.53;1.20;;;;;;;;;;5030725;28;20184;-48
2021/11/19 13:35:06;;;;;;;3.38;1.20;;;;;;;;;;5030996;28;20263;-49
2021/11/19 13:37:35;;;;;;;2.53;1.20;;;;;;;;;;5028029;28;20825;-49
2021/11/19 13:40:20;;;;;;;2.50;1.20;;;;;;;;;;5026865;28;20184;-50
2021/11/19 13:42:48;;;;;;;2.65;1.15;;;;;;;;;;5028908;28;20191;-50
2021/11/19 13:45:26;;;;;;;1.70;1.08;;;;;;;;;;5034620;28;20555;-49
2021/11/19 13:47:52;;;;;;;1.88;1.00;;;;;;;;;;5032329;28;20226;-49
2021/11/19 13:50:20;;;;;;;2.85;1.15;;;;;;;;;;5034147;28;20184;-49
2021/11/19 13:52:58;;;;;;;1.13;0.95;;;;;;;;;;5036567;28;20190;-49
2021/11/19 13:55:31;;;;;;;2.05;1.10;;;;;;;;;;5033169;28;20583;-48
2021/11/19 13:58:03;;;;;;;2.38;1.10;;;;;;;;;;5034428;28;20198;-48
2021/11/19 14:00:42;;;;;;;3.42;1.10;;;;;;;;;;5032548;28;20211;-48
2021/11/19 14:03:15;;;;;;;1.67;1.08;;;;;;;;;;5031256;28;20649;-50
2021/11/19 14:05:44;;;;;;;2.08;1.20;;;;;;;;;;5028098;28;20578;-50
2021/11/19 14:08:13;;;;;;;2.15;1.30;;;;;;;;;;5031803;28;20959;-48
2021/11/19 14:10:53;;;;;;;2.67;0.93;;;;;;;;;;5032181;28;20194;-48
2021/11/19 14:13:37;;;;;;;1.13;0.93;;;;;;;;;;5033718;28;20168;-49
2021/11/19 14:16:05;;;;;;;2.88;1.13;;;;;;;;;;5033864;28;20443;-49
2021/11/19 14:18:35;;;;;;;1.52;0.80;;;;;;;;;;5032926;28;20191;-49
2021/11/19 14:23:51;;;;;;;1.20;1.00;;;;;;;;;;5034556;28;20654;-48
2021/11/19 14:26:25;;;;;;;1.13;0.95;;;;;;;;;;5033870;28;20191;-49
2021/11/19 14:28:53;;;;;;;1.10;1.00;;;;;;;;;;5034507;28;20265;-49
2021/11/19 14:31:20;;;;;;;2.13;0.80;;;;;;;;;;5032411;28;20632;-48
2021/11/19 14:33:54;;;;;;;1.15;1.00;;;;;;;;;;5026951;28;20195;-48
2021/11/19 14:36:25;;;;;;;0.98;0.90;;;;;;;;;;5031438;28;20180;-48
2021/11/19 14:38:57;;;;;;;4.25;1.17;;;;;;;;;;5032419;28;20211;-48
2021/11/19 14:41:46;;;;;;;1.45;1.10;;;;;;;;;;5032520;28;20184;-49
2021/11/19 14:44:18;;;;;;;2.78;1.20;;;;;;;;;;5030833;28;20308;-48
2021/11/19 14:46:47;;;;;;;1.77;0.88;;;;;;;;;;5033856;28;20450;-49
2021/11/19 14:49:29;;;;;;;1.27;1.05;;;;;;;;;;5032848;28;20229;-48
2021/11/19 14:52:12;;;;;;;1.38;1.00;;;;;;;;;;5034171;28;20198;-48
2021/11/19 14:54:41;;;;;;;1.23;0.90;;;;;;;;;;5027337;28;20184;-50
2021/11/19 14:57:10;;;;;;;0.80;0.80;;;;;;;;;;5032671;28;20181;-49